sensor_id;sensor_type;location;lat;lon;timestamp;P1;durP1;ratioP1;P2;durP2;ratioP2
24163;SDS011;12319;49.204;8.116;2023-12-14T00:01:58;3.87;;;1.90;;
24163;SDS011;12319;49.204;8.116;2023-12-14T00:04:24;2.93;;;1.70;;
24163;SDS011;12319;49.204;8.116;2023-12-14T00:06:49;3.63;;;1.80;;
24163;SDS011;12319;49.204;8.116;2023-12-14T00:09:15;3.30;;;1.80;;
24163;SDS011;12319;49.204;8.116;2023-12-14T00:11:40;3.20;;;1.70;;
24163;SDS011;12319;49.204;8.116;2023-12-14T00:14:06;3.42;;;1.85;;
24163;SDS011;12319;49.204;8.116;2023-12-14T00:16:32;3.80;;;2.00;;
24163;SDS011;12319;49.204;8.116;2023-12-14T00:18:57;4.20;;;1.90;;
24163;SDS011;12319;49.204;8.116;2023-12-14T00:21:23;3.38;;;1.75;;
24163;SDS011;12319;49.204;8.116;2023-12-14T00:23:48;3.60;;;1.80;;
24163;SDS011;12319;49.204;8.116;2023-12-14T00:26:14;4.57;;;2.30;;
24163;SDS011;12319;49.204;8.116;2023-12-14T00:28:39;3.60;;;1.85;;
24163;SDS011;12319;49.204;8.116;2023-12-14T00:31:05;3.77;;;1.90;;
24163;SDS011;12319;49.204;8.116;2023-12-14T00:33:31;4.18;;;1.98;;
24163;SDS011;12319;49.204;8.116;2023-12-14T00:35:57;5.57;;;2.10;;
24163;SDS011;12319;49.204;8.116;2023-12-14T00:38:22;4.47;;;2.20;;
24163;SDS011;12319;49.204;8.116;2023-12-14T00:40:48;4.10;;;2.00;;
24163;SDS011;12319;49.204;8.116;2023-12-14T00:43:13;3.90;;;1.90;;
24163;SDS011;12319;49.204;8.116;2023-12-14T00:45:39;4.25;;;2.20;;
24163;SDS011;12319;49.204;8.116;2023-12-14T00:48:06;3.67;;;2.03;;
24163;SDS011;12319;49.204;8.116;2023-12-14T00:50:31;3.97;;;1.90;;
24163;SDS011;12319;49.204;8.116;2023-12-14T00:52:57;5.37;;;1.93;;
24163;SDS011;12319;49.204;8.116;2023-12-14T00:55:22;3.97;;;2.10;;
24163;SDS011;12319;49.204;8.116;2023-12-14T00:57:49;3.92;;;2.08;;
24163;SDS011;12319;49.204;8.116;2023-12-14T01:00:15;4.13;;;2.20;;
24163;SDS011;12319;49.204;8.116;2023-12-14T01:02:40;4.32;;;2.15;;
24163;SDS011;12319;49.204;8.116;2023-12-14T01:05:06;4.77;;;2.00;;
24163;SDS011;12319;49.204;8.116;2023-12-14T01:07:32;3.97;;;2.28;;
24163;SDS011;12319;49.204;8.116;2023-12-14T01:09:58;4.30;;;2.30;;
24163;SDS011;12319;49.204;8.116;2023-12-14T01:12:23;4.63;;;2.20;;
24163;SDS011;12319;49.204;8.116;2023-12-14T01:14:49;5.87;;;2.17;;
24163;SDS011;12319;49.204;8.116;2023-12-14T01:17:14;4.37;;;2.17;;
24163;SDS011;12319;49.204;8.116;2023-12-14T01:19:40;4.47;;;2.25;;
24163;SDS011;12319;49.204;8.116;2023-12-14T01:22:06;3.90;;;2.00;;
24163;SDS011;12319;49.204;8.116;2023-12-14T01:24:31;4.30;;;2.10;;
24163;SDS011;12319;49.204;8.116;2023-12-14T01:26:57;3.93;;;2.00;;
24163;SDS011;12319;49.204;8.116;2023-12-14T01:29:22;3.75;;;2.15;;
24163;SDS011;12319;49.204;8.116;2023-12-14T01:31:48;6.07;;;2.30;;
24163;SDS011;12319;49.204;8.116;2023-12-14T01:34:13;7.87;;;2.17;;
24163;SDS011;12319;49.204;8.116;2023-12-14T01:36:40;4.50;;;2.30;;
24163;SDS011;12319;49.204;8.116;2023-12-14T01:39:06;4.43;;;2.20;;
24163;SDS011;12319;49.204;8.116;2023-12-14T01:41:32;4.67;;;2.47;;
24163;SDS011;12319;49.204;8.116;2023-12-14T01:43:57;4.60;;;2.40;;
24163;SDS011;12319;49.204;8.116;2023-12-14T01:46:23;5.80;;;2.40;;
24163;SDS011;12319;49.204;8.116;2023-12-14T01:48:49;5.25;;;2.13;;
24163;SDS011;12319;49.204;8.116;2023-12-14T01:51:15;4.50;;;2.13;;
24163;SDS011;12319;49.204;8.116;2023-12-14T01:53:40;4.28;;;2.05;;
24163;SDS011;12319;49.204;8.116;2023-12-14T01:56:06;4.47;;;2.13;;
24163;SDS011;12319;49.204;8.116;2023-12-14T01:58:32;3.88;;;2.00;;
24163;SDS011;12319;49.204;8.116;2023-12-14T02:03:45;4.45;;;2.30;;
24163;SDS011;12319;49.204;8.116;2023-12-14T02:06:13;4.40;;;2.20;;
24163;SDS011;12319;49.204;8.116;2023-12-14T02:08:39;4.10;;;2.20;;
24163;SDS011;12319;49.204;8.116;2023-12-14T02:11:04;4.30;;;2.33;;
24163;SDS011;12319;49.204;8.116;2023-12-14T02:13:30;4.40;;;2.20;;
24163;SDS011;12319;49.204;8.116;2023-12-14T02:15:55;4.37;;;2.30;;
24163;SDS011;12319;49.204;8.116;2023-12-14T02:18:21;5.23;;;2.37;;
24163;SDS011;12319;49.204;8.116;2023-12-14T02:20:46;5.03;;;2.20;;
24163;SDS011;12319;49.204;8.116;2023-12-14T02:23:12;4.00;;;2.17;;
24163;SDS011;12319;49.204;8.116;2023-12-14T02:25:38;3.72;;;2.03;;
24163;SDS011;12319;49.204;8.116;2023-12-14T02:28:03;4.40;;;2.30;;
24163;SDS011;12319;49.204;8.116;2023-12-14T02:30:29;4.13;;;2.10;;
24163;SDS011;12319;49.204;8.116;2023-12-14T02:32:54;6.18;;;2.28;;
24163;SDS011;12319;49.204;8.116;2023-12-14T02:35:20;4.57;;;2.20;;
24163;SDS011;12319;49.204;8.116;2023-12-14T02:37:47;4.88;;;2.22;;
24163;SDS011;12319;49.204;8.116;2023-12-14T02:40:13;5.17;;;2.23;;
24163;SDS011;12319;49.204;8.116;2023-12-14T02:42:39;5.35;;;2.38;;
24163;SDS011;12319;49.204;8.116;2023-12-14T02:45:05;4.40;;;2.20;;
24163;SDS011;12319;49.204;8.116;2023-12-14T02:47:32;4.18;;;2.00;;
24163;SDS011;12319;49.204;8.116;2023-12-14T02:49:57;5.10;;;2.50;;
24163;SDS011;12319;49.204;8.116;2023-12-14T02:52:23;4.70;;;2.25;;
24163;SDS011;12319;49.204;8.116;2023-12-14T02:54:48;4.00;;;1.93;;
24163;SDS011;12319;49.204;8.116;2023-12-14T02:57:14;4.93;;;2.30;;
24163;SDS011;12319;49.204;8.116;2023-12-14T02:59:39;5.10;;;2.17;;
24163;SDS011;12319;49.204;8.116;2023-12-14T03:02:05;3.93;;;2.20;;
24163;SDS011;12319;49.204;8.116;2023-12-14T03:04:31;4.07;;;2.03;;
24163;SDS011;12319;49.204;8.116;2023-12-14T03:06:56;6.60;;;2.42;;
24163;SDS011;12319;49.204;8.116;2023-12-14T03:09:22;4.70;;;2.10;;
24163;SDS011;12319;49.204;8.116;2023-12-14T03:11:48;4.28;;;2.28;;
24163;SDS011;12319;49.204;8.116;2023-12-14T03:14:14;6.15;;;2.40;;
24163;SDS011;12319;49.204;8.116;2023-12-14T03:16:39;4.30;;;2.20;;
24163;SDS011;12319;49.204;8.116;2023-12-14T03:19:05;4.40;;;2.10;;
24163;SDS011;12319;49.204;8.116;2023-12-14T03:21:30;4.95;;;2.20;;
24163;SDS011;12319;49.204;8.116;2023-12-14T03:23:56;4.33;;;2.20;;
24163;SDS011;12319;49.204;8.116;2023-12-14T03:26:22;4.72;;;2.28;;
24163;SDS011;12319;49.204;8.116;2023-12-14T03:28:47;5.25;;;2.10;;
24163;SDS011;12319;49.204;8.116;2023-12-14T03:31:13;4.57;;;2.30;;
24163;SDS011;12319;49.204;8.116;2023-12-14T03:33:39;4.57;;;2.22;;
24163;SDS011;12319;49.204;8.116;2023-12-14T03:36:05;4.28;;;2.03;;
24163;SDS011;12319;49.204;8.116;2023-12-14T03:38:33;6.80;;;2.20;;
24163;SDS011;12319;49.204;8.116;2023-12-14T03:40:59;6.40;;;2.28;;
24163;SDS011;12319;49.204;8.116;2023-12-14T03:43:25;4.60;;;2.25;;
24163;SDS011;12319;49.204;8.116;2023-12-14T03:45:51;4.20;;;2.10;;
24163;SDS011;12319;49.204;8.116;2023-12-14T03:48:17;5.00;;;2.30;;
24163;SDS011;12319;49.204;8.116;2023-12-14T03:50:42;4.75;;;2.17;;
24163;SDS011;12319;49.204;8.116;2023-12-14T03:53:08;4.40;;;2.30;;
24163;SDS011;12319;49.204;8.116;2023-12-14T03:55:34;4.20;;;2.05;;
24163;SDS011;12319;49.204;8.116;2023-12-14T03:57:59;4.67;;;2.47;;
24163;SDS011;12319;49.204;8.116;2023-12-14T04:00:25;3.85;;;2.10;;
24163;SDS011;12319;49.204;8.116;2023-12-14T04:02:51;5.73;;;2.23;;
24163;SDS011;12319;49.204;8.116;2023-12-14T04:05:17;4.38;;;2.33;;
24163;SDS011;12319;49.204;8.116;2023-12-14T04:07:43;4.80;;;2.30;;
24163;SDS011;12319;49.204;8.116;2023-12-14T04:10:09;5.22;;;2.58;;
24163;SDS011;12319;49.204;8.116;2023-12-14T04:12:36;4.70;;;2.13;;
24163;SDS011;12319;49.204;8.116;2023-12-14T04:15:02;4.60;;;2.30;;
24163;SDS011;12319;49.204;8.116;2023-12-14T04:17:32;3.83;;;1.90;;
24163;SDS011;12319;49.204;8.116;2023-12-14T04:19:58;4.57;;;2.28;;
24163;SDS011;12319;49.204;8.116;2023-12-14T04:22:24;5.60;;;2.20;;
24163;SDS011;12319;49.204;8.116;2023-12-14T04:24:50;4.63;;;2.40;;
24163;SDS011;12319;49.204;8.116;2023-12-14T04:27:16;4.22;;;2.28;;
24163;SDS011;12319;49.204;8.116;2023-12-14T04:29:42;3.63;;;2.03;;
24163;SDS011;12319;49.204;8.116;2023-12-14T04:32:07;5.30;;;2.22;;
24163;SDS011;12319;49.204;8.116;2023-12-14T04:34:33;3.97;;;2.10;;
24163;SDS011;12319;49.204;8.116;2023-12-14T04:36:58;4.00;;;2.10;;
24163;SDS011;12319;49.204;8.116;2023-12-14T04:39:24;4.37;;;2.20;;
24163;SDS011;12319;49.204;8.116;2023-12-14T04:41:50;3.90;;;2.10;;
24163;SDS011;12319;49.204;8.116;2023-12-14T04:44:17;4.50;;;2.20;;
24163;SDS011;12319;49.204;8.116;2023-12-14T04:46:43;3.97;;;2.20;;
24163;SDS011;12319;49.204;8.116;2023-12-14T04:49:08;4.13;;;2.20;;
24163;SDS011;12319;49.204;8.116;2023-12-14T04:51:34;4.10;;;2.17;;
24163;SDS011;12319;49.204;8.116;2023-12-14T04:53:59;4.77;;;2.20;;
24163;SDS011;12319;49.204;8.116;2023-12-14T04:56:25;4.33;;;2.30;;
24163;SDS011;12319;49.204;8.116;2023-12-14T04:58:50;6.07;;;2.03;;
24163;SDS011;12319;49.204;8.116;2023-12-14T05:01:16;4.93;;;2.10;;
24163;SDS011;12319;49.204;8.116;2023-12-14T05:03:42;4.83;;;2.13;;
24163;SDS011;12319;49.204;8.116;2023-12-14T05:06:07;5.63;;;2.50;;
24163;SDS011;12319;49.204;8.116;2023-12-14T05:08:33;4.27;;;2.20;;
24163;SDS011;12319;49.204;8.116;2023-12-14T05:10:59;4.05;;;2.10;;
24163;SDS011;12319;49.204;8.116;2023-12-14T05:13:24;4.20;;;2.00;;
24163;SDS011;12319;49.204;8.116;2023-12-14T05:15:50;4.25;;;2.10;;
24163;SDS011;12319;49.204;8.116;2023-12-14T05:18:16;4.20;;;2.03;;
24163;SDS011;12319;49.204;8.116;2023-12-14T05:20:42;4.00;;;2.00;;
24163;SDS011;12319;49.204;8.116;2023-12-14T05:23:09;4.70;;;2.22;;
24163;SDS011;12319;49.204;8.116;2023-12-14T05:25:35;5.10;;;2.50;;
24163;SDS011;12319;49.204;8.116;2023-12-14T05:28:00;5.23;;;2.13;;
24163;SDS011;12319;49.204;8.116;2023-12-14T05:30:26;4.15;;;2.17;;
24163;SDS011;12319;49.204;8.116;2023-12-14T05:32:51;4.20;;;2.30;;
24163;SDS011;12319;49.204;8.116;2023-12-14T05:35:17;4.40;;;2.00;;
24163;SDS011;12319;49.204;8.116;2023-12-14T05:37:42;4.05;;;2.28;;
24163;SDS011;12319;49.204;8.116;2023-12-14T05:40:09;4.22;;;2.10;;
24163;SDS011;12319;49.204;8.116;2023-12-14T05:42:35;6.50;;;1.80;;
24163;SDS011;12319;49.204;8.116;2023-12-14T05:45:00;5.23;;;2.23;;
24163;SDS011;12319;49.204;8.116;2023-12-14T05:47:26;4.03;;;2.20;;
24163;SDS011;12319;49.204;8.116;2023-12-14T05:49:52;4.60;;;2.45;;
24163;SDS011;12319;49.204;8.116;2023-12-14T05:52:17;4.33;;;2.23;;
24163;SDS011;12319;49.204;8.116;2023-12-14T05:54:43;4.18;;;2.20;;
24163;SDS011;12319;49.204;8.116;2023-12-14T05:57:08;6.82;;;2.20;;
24163;SDS011;12319;49.204;8.116;2023-12-14T05:59:37;4.07;;;1.98;;
24163;SDS011;12319;49.204;8.116;2023-12-14T06:02:03;4.03;;;2.10;;
24163;SDS011;12319;49.204;8.116;2023-12-14T06:04:30;4.57;;;2.10;;
24163;SDS011;12319;49.204;8.116;2023-12-14T06:06:55;5.10;;;2.20;;
24163;SDS011;12319;49.204;8.116;2023-12-14T06:09:21;5.43;;;2.50;;
24163;SDS011;12319;49.204;8.116;2023-12-14T06:11:51;7.07;;;2.58;;
24163;SDS011;12319;49.204;8.116;2023-12-14T06:14:17;4.73;;;2.13;;
24163;SDS011;12319;49.204;8.116;2023-12-14T06:16:42;4.35;;;2.22;;
24163;SDS011;12319;49.204;8.116;2023-12-14T06:19:08;5.80;;;2.50;;
24163;SDS011;12319;49.204;8.116;2023-12-14T06:21:33;5.63;;;2.80;;
24163;SDS011;12319;49.204;8.116;2023-12-14T06:23:59;5.28;;;2.40;;
24163;SDS011;12319;49.204;8.116;2023-12-14T06:26:25;5.13;;;2.40;;
24163;SDS011;12319;49.204;8.116;2023-12-14T06:28:51;5.18;;;2.45;;
24163;SDS011;12319;49.204;8.116;2023-12-14T06:31:17;6.03;;;2.80;;
24163;SDS011;12319;49.204;8.116;2023-12-14T06:33:46;5.95;;;3.03;;
24163;SDS011;12319;49.204;8.116;2023-12-14T06:36:14;4.80;;;2.45;;
24163;SDS011;12319;49.204;8.116;2023-12-14T06:38:43;5.63;;;2.60;;
24163;SDS011;12319;49.204;8.116;2023-12-14T06:41:17;4.70;;;2.40;;
24163;SDS011;12319;49.204;8.116;2023-12-14T06:43:43;5.03;;;2.77;;
24163;SDS011;12319;49.204;8.116;2023-12-14T06:46:09;6.10;;;2.67;;
24163;SDS011;12319;49.204;8.116;2023-12-14T06:48:34;5.27;;;2.73;;
24163;SDS011;12319;49.204;8.116;2023-12-14T06:51:00;4.60;;;2.40;;
24163;SDS011;12319;49.204;8.116;2023-12-14T06:53:25;5.70;;;2.50;;
24163;SDS011;12319;49.204;8.116;2023-12-14T06:55:51;4.95;;;2.63;;
24163;SDS011;12319;49.204;8.116;2023-12-14T06:58:17;4.47;;;2.47;;
24163;SDS011;12319;49.204;8.116;2023-12-14T07:00:42;4.95;;;2.40;;
24163;SDS011;12319;49.204;8.116;2023-12-14T07:03:08;5.40;;;2.50;;
24163;SDS011;12319;49.204;8.116;2023-12-14T07:05:34;5.57;;;2.67;;
24163;SDS011;12319;49.204;8.116;2023-12-14T07:07:59;4.53;;;2.23;;
24163;SDS011;12319;49.204;8.116;2023-12-14T07:10:25;5.13;;;2.35;;
24163;SDS011;12319;49.204;8.116;2023-12-14T07:12:51;4.83;;;2.40;;
24163;SDS011;12319;49.204;8.116;2023-12-14T07:15:17;5.05;;;2.40;;
24163;SDS011;12319;49.204;8.116;2023-12-14T07:17:43;4.35;;;2.20;;
24163;SDS011;12319;49.204;8.116;2023-12-14T07:20:09;5.03;;;2.33;;
24163;SDS011;12319;49.204;8.116;2023-12-14T07:22:36;4.25;;;2.20;;
24163;SDS011;12319;49.204;8.116;2023-12-14T07:25:01;4.37;;;2.37;;
24163;SDS011;12319;49.204;8.116;2023-12-14T07:27:28;6.80;;;2.47;;
24163;SDS011;12319;49.204;8.116;2023-12-14T07:29:53;4.80;;;2.23;;
24163;SDS011;12319;49.204;8.116;2023-12-14T07:32:19;4.72;;;2.45;;
24163;SDS011;12319;49.204;8.116;2023-12-14T07:34:45;5.30;;;2.50;;
24163;SDS011;12319;49.204;8.116;2023-12-14T07:37:10;4.70;;;2.20;;
24163;SDS011;12319;49.204;8.116;2023-12-14T07:39:37;4.70;;;2.40;;
24163;SDS011;12319;49.204;8.116;2023-12-14T07:42:02;4.85;;;2.13;;
24163;SDS011;12319;49.204;8.116;2023-12-14T07:44:28;4.23;;;2.27;;
24163;SDS011;12319;49.204;8.116;2023-12-14T07:46:55;4.93;;;2.10;;
24163;SDS011;12319;49.204;8.116;2023-12-14T07:49:21;3.65;;;2.00;;
24163;SDS011;12319;49.204;8.116;2023-12-14T07:51:48;6.80;;;2.10;;
24163;SDS011;12319;49.204;8.116;2023-12-14T07:54:14;4.35;;;2.13;;
24163;SDS011;12319;49.204;8.116;2023-12-14T07:56:40;5.90;;;2.00;;
24163;SDS011;12319;49.204;8.116;2023-12-14T07:59:06;4.67;;;2.20;;
24163;SDS011;12319;49.204;8.116;2023-12-14T08:01:32;4.40;;;2.05;;
24163;SDS011;12319;49.204;8.116;2023-12-14T08:03:58;4.03;;;1.95;;
24163;SDS011;12319;49.204;8.116;2023-12-14T08:06:24;6.28;;;2.50;;
24163;SDS011;12319;49.204;8.116;2023-12-14T08:08:50;4.63;;;2.40;;
24163;SDS011;12319;49.204;8.116;2023-12-14T08:11:16;4.70;;;2.50;;
24163;SDS011;12319;49.204;8.116;2023-12-14T08:13:41;5.83;;;2.23;;
24163;SDS011;12319;49.204;8.116;2023-12-14T08:16:07;4.47;;;2.27;;
24163;SDS011;12319;49.204;8.116;2023-12-14T08:18:33;4.80;;;2.30;;
24163;SDS011;12319;49.204;8.116;2023-12-14T08:20:58;5.33;;;2.30;;
24163;SDS011;12319;49.204;8.116;2023-12-14T08:23:24;4.63;;;2.28;;
24163;SDS011;12319;49.204;8.116;2023-12-14T08:25:52;4.68;;;2.20;;
24163;SDS011;12319;49.204;8.116;2023-12-14T08:28:22;4.03;;;2.07;;
24163;SDS011;12319;49.204;8.116;2023-12-14T08:30:48;5.60;;;2.30;;
24163;SDS011;12319;49.204;8.116;2023-12-14T08:33:13;3.90;;;2.10;;
24163;SDS011;12319;49.204;8.116;2023-12-14T08:35:39;4.60;;;2.10;;
24163;SDS011;12319;49.204;8.116;2023-12-14T08:38:04;4.80;;;2.17;;
24163;SDS011;12319;49.204;8.116;2023-12-14T08:40:30;4.13;;;2.07;;
24163;SDS011;12319;49.204;8.116;2023-12-14T08:42:55;4.25;;;2.00;;
24163;SDS011;12319;49.204;8.116;2023-12-14T08:45:22;3.67;;;1.90;;
24163;SDS011;12319;49.204;8.116;2023-12-14T08:47:48;3.87;;;2.00;;
24163;SDS011;12319;49.204;8.116;2023-12-14T08:50:13;4.37;;;2.07;;
24163;SDS011;12319;49.204;8.116;2023-12-14T08:52:39;4.90;;;2.13;;
24163;SDS011;12319;49.204;8.116;2023-12-14T08:55:04;4.60;;;2.00;;
24163;SDS011;12319;49.204;8.116;2023-12-14T08:57:30;4.65;;;2.25;;
24163;SDS011;12319;49.204;8.116;2023-12-14T08:59:56;3.90;;;2.13;;
24163;SDS011;12319;49.204;8.116;2023-12-14T09:02:21;5.75;;;2.15;;
24163;SDS011;12319;49.204;8.116;2023-12-14T09:04:47;4.28;;;2.17;;
24163;SDS011;12319;49.204;8.116;2023-12-14T09:07:12;3.97;;;1.93;;
24163;SDS011;12319;49.204;8.116;2023-12-14T09:09:38;4.50;;;2.20;;
24163;SDS011;12319;49.204;8.116;2023-12-14T09:12:04;3.72;;;2.00;;
24163;SDS011;12319;49.204;8.116;2023-12-14T09:14:29;4.00;;;2.10;;
24163;SDS011;12319;49.204;8.116;2023-12-14T09:16:55;4.50;;;2.00;;
24163;SDS011;12319;49.204;8.116;2023-12-14T09:19:21;4.23;;;2.03;;
24163;SDS011;12319;49.204;8.116;2023-12-14T09:21:46;4.10;;;2.10;;
24163;SDS011;12319;49.204;8.116;2023-12-14T09:24:12;3.93;;;1.90;;
24163;SDS011;12319;49.204;8.116;2023-12-14T09:26:37;5.23;;;2.20;;
24163;SDS011;12319;49.204;8.116;2023-12-14T09:29:03;4.40;;;2.10;;
24163;SDS011;12319;49.204;8.116;2023-12-14T09:31:28;3.58;;;1.98;;
24163;SDS011;12319;49.204;8.116;2023-12-14T09:33:54;4.20;;;2.07;;
24163;SDS011;12319;49.204;8.116;2023-12-14T09:36:19;5.13;;;2.43;;
24163;SDS011;12319;49.204;8.116;2023-12-14T09:38:45;4.03;;;1.90;;
24163;SDS011;12319;49.204;8.116;2023-12-14T09:41:10;4.10;;;2.10;;
24163;SDS011;12319;49.204;8.116;2023-12-14T09:43:36;4.20;;;2.17;;
24163;SDS011;12319;49.204;8.116;2023-12-14T09:46:02;4.68;;;2.13;;
24163;SDS011;12319;49.204;8.116;2023-12-14T09:48:28;4.28;;;2.00;;
24163;SDS011;12319;49.204;8.116;2023-12-14T09:50:55;4.22;;;1.90;;
24163;SDS011;12319;49.204;8.116;2023-12-14T09:53:20;4.50;;;2.00;;
24163;SDS011;12319;49.204;8.116;2023-12-14T09:55:46;4.75;;;2.28;;
24163;SDS011;12319;49.204;8.116;2023-12-14T09:58:11;5.10;;;2.57;;
24163;SDS011;12319;49.204;8.116;2023-12-14T10:00:38;4.50;;;2.25;;
24163;SDS011;12319;49.204;8.116;2023-12-14T10:03:22;5.05;;;2.10;;
24163;SDS011;12319;49.204;8.116;2023-12-14T10:05:51;4.35;;;2.20;;
24163;SDS011;12319;49.204;8.116;2023-12-14T10:08:17;4.23;;;2.00;;
24163;SDS011;12319;49.204;8.116;2023-12-14T10:10:43;4.82;;;2.30;;
24163;SDS011;12319;49.204;8.116;2023-12-14T10:13:09;4.18;;;2.00;;
24163;SDS011;12319;49.204;8.116;2023-12-14T10:15:45;5.20;;;2.47;;
24163;SDS011;12319;49.204;8.116;2023-12-14T10:18:22;4.38;;;2.17;;
24163;SDS011;12319;49.204;8.116;2023-12-14T10:20:49;3.95;;;2.00;;
24163;SDS011;12319;49.204;8.116;2023-12-14T10:23:15;4.50;;;2.20;;
24163;SDS011;12319;49.204;8.116;2023-12-14T10:25:42;5.65;;;2.60;;
24163;SDS011;12319;49.204;8.116;2023-12-14T10:28:07;4.73;;;2.30;;
24163;SDS011;12319;49.204;8.116;2023-12-14T10:30:36;4.43;;;2.17;;
24163;SDS011;12319;49.204;8.116;2023-12-14T10:33:01;5.00;;;2.33;;
24163;SDS011;12319;49.204;8.116;2023-12-14T10:35:27;5.53;;;2.17;;
24163;SDS011;12319;49.204;8.116;2023-12-14T10:37:52;4.63;;;2.33;;
24163;SDS011;12319;49.204;8.116;2023-12-14T10:40:20;4.75;;;2.20;;
24163;SDS011;12319;49.204;8.116;2023-12-14T10:42:48;5.40;;;2.20;;
24163;SDS011;12319;49.204;8.116;2023-12-14T10:45:15;4.72;;;2.25;;
24163;SDS011;12319;49.204;8.116;2023-12-14T10:47:45;5.20;;;2.17;;
24163;SDS011;12319;49.204;8.116;2023-12-14T10:50:13;4.53;;;2.30;;
24163;SDS011;12319;49.204;8.116;2023-12-14T10:52:38;4.67;;;2.20;;
24163;SDS011;12319;49.204;8.116;2023-12-14T10:55:13;4.63;;;2.30;;
24163;SDS011;12319;49.204;8.116;2023-12-14T10:57:46;5.25;;;2.42;;
24163;SDS011;12319;49.204;8.116;2023-12-14T11:00:12;4.30;;;2.15;;
24163;SDS011;12319;49.204;8.116;2023-12-14T11:02:41;4.72;;;2.13;;
24163;SDS011;12319;49.204;8.116;2023-12-14T11:05:11;5.17;;;2.53;;
24163;SDS011;12319;49.204;8.116;2023-12-14T11:07:48;4.47;;;2.00;;
24163;SDS011;12319;49.204;8.116;2023-12-14T11:10:22;4.63;;;2.20;;
24163;SDS011;12319;49.204;8.116;2023-12-14T11:15:22;4.65;;;2.30;;
24163;SDS011;12319;49.204;8.116;2023-12-14T11:20:47;5.43;;;2.03;;
24163;SDS011;12319;49.204;8.116;2023-12-14T11:23:18;4.97;;;2.10;;
24163;SDS011;12319;49.204;8.116;2023-12-14T11:25:50;4.57;;;2.22;;
24163;SDS011;12319;49.204;8.116;2023-12-14T11:28:17;3.92;;;1.90;;
24163;SDS011;12319;49.204;8.116;2023-12-14T11:30:46;4.40;;;1.93;;
24163;SDS011;12319;49.204;8.116;2023-12-14T11:33:12;4.10;;;1.80;;
24163;SDS011;12319;49.204;8.116;2023-12-14T11:35:39;4.35;;;1.90;;
24163;SDS011;12319;49.204;8.116;2023-12-14T11:38:04;3.77;;;1.80;;
24163;SDS011;12319;49.204;8.116;2023-12-14T11:40:39;3.97;;;1.88;;
24163;SDS011;12319;49.204;8.116;2023-12-14T11:43:05;3.88;;;1.80;;
24163;SDS011;12319;49.204;8.116;2023-12-14T11:45:32;3.63;;;1.80;;
24163;SDS011;12319;49.204;8.116;2023-12-14T11:48:12;4.40;;;1.90;;
24163;SDS011;12319;49.204;8.116;2023-12-14T11:50:38;3.95;;;1.70;;
24163;SDS011;12319;49.204;8.116;2023-12-14T11:53:05;4.05;;;1.88;;
24163;SDS011;12319;49.204;8.116;2023-12-14T11:55:33;3.80;;;1.80;;
24163;SDS011;12319;49.204;8.116;2023-12-14T11:57:59;4.30;;;1.90;;
24163;SDS011;12319;49.204;8.116;2023-12-14T12:00:28;4.30;;;2.03;;
24163;SDS011;12319;49.204;8.116;2023-12-14T12:03:13;3.03;;;1.50;;
24163;SDS011;12319;49.204;8.116;2023-12-14T12:05:45;3.40;;;1.73;;
24163;SDS011;12319;49.204;8.116;2023-12-14T12:08:16;3.75;;;1.83;;
24163;SDS011;12319;49.204;8.116;2023-12-14T12:10:44;3.42;;;1.73;;
24163;SDS011;12319;49.204;8.116;2023-12-14T12:13:15;3.42;;;1.70;;
24163;SDS011;12319;49.204;8.116;2023-12-14T12:15:45;3.92;;;2.00;;
24163;SDS011;12319;49.204;8.116;2023-12-14T12:18:14;4.40;;;2.00;;
24163;SDS011;12319;49.204;8.116;2023-12-14T12:20:41;3.60;;;1.80;;
24163;SDS011;12319;49.204;8.116;2023-12-14T12:23:07;4.65;;;2.15;;
24163;SDS011;12319;49.204;8.116;2023-12-14T12:25:33;3.33;;;1.80;;
24163;SDS011;12319;49.204;8.116;2023-12-14T12:28:01;3.78;;;1.88;;
24163;SDS011;12319;49.204;8.116;2023-12-14T12:30:28;5.07;;;1.85;;
24163;SDS011;12319;49.204;8.116;2023-12-14T12:32:54;3.87;;;1.90;;
24163;SDS011;12319;49.204;8.116;2023-12-14T12:35:20;4.00;;;1.92;;
24163;SDS011;12319;49.204;8.116;2023-12-14T12:37:47;3.90;;;1.80;;
24163;SDS011;12319;49.204;8.116;2023-12-14T12:40:18;3.50;;;1.90;;
24163;SDS011;12319;49.204;8.116;2023-12-14T12:42:47;4.28;;;1.85;;
24163;SDS011;12319;49.204;8.116;2023-12-14T12:45:14;3.93;;;1.90;;
24163;SDS011;12319;49.204;8.116;2023-12-14T12:47:45;3.92;;;1.85;;
24163;SDS011;12319;49.204;8.116;2023-12-14T12:50:11;5.13;;;2.20;;
24163;SDS011;12319;49.204;8.116;2023-12-14T12:52:37;4.25;;;1.92;;
24163;SDS011;12319;49.204;8.116;2023-12-14T12:55:03;3.43;;;1.80;;
24163;SDS011;12319;49.204;8.116;2023-12-14T12:57:32;4.00;;;1.90;;
24163;SDS011;12319;49.204;8.116;2023-12-14T12:59:58;4.70;;;2.00;;
24163;SDS011;12319;49.204;8.116;2023-12-14T13:02:23;2.95;;;1.65;;
24163;SDS011;12319;49.204;8.116;2023-12-14T13:04:49;4.37;;;2.00;;
24163;SDS011;12319;49.204;8.116;2023-12-14T13:07:15;4.10;;;2.05;;
24163;SDS011;12319;49.204;8.116;2023-12-14T13:09:41;4.20;;;1.90;;
24163;SDS011;12319;49.204;8.116;2023-12-14T13:12:07;4.10;;;1.80;;
24163;SDS011;12319;49.204;8.116;2023-12-14T13:14:32;3.73;;;1.97;;
24163;SDS011;12319;49.204;8.116;2023-12-14T13:16:58;2.75;;;1.60;;
24163;SDS011;12319;49.204;8.116;2023-12-14T13:19:24;2.63;;;1.43;;
24163;SDS011;12319;49.204;8.116;2023-12-14T13:21:51;5.38;;;1.77;;
24163;SDS011;12319;49.204;8.116;2023-12-14T13:24:16;3.20;;;1.60;;
24163;SDS011;12319;49.204;8.116;2023-12-14T13:26:42;3.83;;;1.70;;
24163;SDS011;12319;49.204;8.116;2023-12-14T13:29:07;3.70;;;1.60;;
24163;SDS011;12319;49.204;8.116;2023-12-14T13:31:33;3.75;;;1.70;;
24163;SDS011;12319;49.204;8.116;2023-12-14T13:33:58;3.10;;;1.70;;
24163;SDS011;12319;49.204;8.116;2023-12-14T13:36:24;2.77;;;1.60;;
24163;SDS011;12319;49.204;8.116;2023-12-14T13:38:49;2.63;;;1.50;;
24163;SDS011;12319;49.204;8.116;2023-12-14T13:41:15;2.73;;;1.50;;
24163;SDS011;12319;49.204;8.116;2023-12-14T13:43:40;3.10;;;1.60;;
24163;SDS011;12319;49.204;8.116;2023-12-14T13:46:06;4.20;;;2.10;;
24163;SDS011;12319;49.204;8.116;2023-12-14T13:48:31;3.03;;;1.70;;
24163;SDS011;12319;49.204;8.116;2023-12-14T13:50:57;3.27;;;1.70;;
24163;SDS011;12319;49.204;8.116;2023-12-14T13:53:23;2.87;;;1.60;;
24163;SDS011;12319;49.204;8.116;2023-12-14T13:55:48;3.50;;;1.77;;
24163;SDS011;12319;49.204;8.116;2023-12-14T13:58:15;3.03;;;1.50;;
24163;SDS011;12319;49.204;8.116;2023-12-14T14:00:41;3.23;;;1.60;;
24163;SDS011;12319;49.204;8.116;2023-12-14T14:03:07;3.15;;;1.52;;
24163;SDS011;12319;49.204;8.116;2023-12-14T14:05:32;3.53;;;1.70;;
24163;SDS011;12319;49.204;8.116;2023-12-14T14:07:59;3.13;;;1.60;;
24163;SDS011;12319;49.204;8.116;2023-12-14T14:10:25;2.67;;;1.52;;
24163;SDS011;12319;49.204;8.116;2023-12-14T14:12:50;4.20;;;1.70;;
24163;SDS011;12319;49.204;8.116;2023-12-14T14:15:16;3.35;;;1.70;;
24163;SDS011;12319;49.204;8.116;2023-12-14T14:17:42;3.58;;;1.60;;
24163;SDS011;12319;49.204;8.116;2023-12-14T14:20:08;4.17;;;1.90;;
24163;SDS011;12319;49.204;8.116;2023-12-14T14:22:35;3.45;;;1.80;;
24163;SDS011;12319;49.204;8.116;2023-12-14T14:25:04;3.15;;;1.50;;
24163;SDS011;12319;49.204;8.116;2023-12-14T14:27:31;3.25;;;1.63;;
24163;SDS011;12319;49.204;8.116;2023-12-14T14:29:57;3.80;;;1.73;;
24163;SDS011;12319;49.204;8.116;2023-12-14T14:32:23;3.28;;;1.70;;
24163;SDS011;12319;49.204;8.116;2023-12-14T14:34:51;3.57;;;1.70;;
24163;SDS011;12319;49.204;8.116;2023-12-14T14:37:19;3.78;;;1.75;;
24163;SDS011;12319;49.204;8.116;2023-12-14T14:39:45;4.40;;;1.80;;
24163;SDS011;12319;49.204;8.116;2023-12-14T14:42:11;3.78;;;1.90;;
24163;SDS011;12319;49.204;8.116;2023-12-14T14:44:36;4.67;;;1.80;;
24163;SDS011;12319;49.204;8.116;2023-12-14T14:47:02;3.93;;;1.80;;
24163;SDS011;12319;49.204;8.116;2023-12-14T14:49:28;3.47;;;1.80;;
24163;SDS011;12319;49.204;8.116;2023-12-14T14:51:53;3.60;;;1.75;;